Rio Grande, Texas
Current Conditions -  °F | °C
As of 1:15 AM on Friday 28 Nov 2014 (Local Time) from KEBG Reporting Station
Moderate Fog Moderate Fog  
Wind Chill: 13°   Ceiling: 500
Heat Index: 13°   Visibility: 0.5mi
Dew Point: 12°   Wind: 0mph
Humidity: 92%   Direction: NA
Pressure: 30.35"   Gusts: NA
Location:  26.5735°N, 98.695°W
Report Text: KEBG 280715Z AUTO 00000KT 1/2SM FG VV005 13/12 A3035 RMK AO2 T01270115
Loading
Personal Weather Stations






























Interactive Weather Map New forecast layout! Learn more

10-Day Weather Forecast

Advertisements
Track Severe Weather on mobile